createdAt,value
2018-12-16T00:01:33.675Z,94473.91
2018-12-16T00:04:02.720Z,94475.59
2018-12-16T00:06:31.505Z,94479.92
2018-12-16T00:09:00.200Z,94469.58
2018-12-16T00:11:29.142Z,94480.91
2018-12-16T00:13:57.858Z,94482.41
2018-12-16T00:16:26.615Z,94488.43
2018-12-16T00:18:55.363Z,94478.51
2018-12-16T00:21:24.069Z,94491.48
2018-12-16T00:23:52.839Z,94479.70
2018-12-16T00:26:21.576Z,94483.72
2018-12-16T00:28:50.290Z,94487.52
2018-12-16T00:31:19.036Z,94484.70
2018-12-16T00:33:47.765Z,94492.97
2018-12-16T00:36:16.508Z,94494.41
2018-12-16T00:38:45.290Z,94488.81
2018-12-16T00:41:13.992Z,94489.20
2018-12-16T00:43:42.688Z,94494.41
2018-12-16T00:46:11.486Z,94483.00
2018-12-16T00:48:40.248Z,94492.61
2018-12-16T00:51:08.993Z,94484.23
2018-12-16T00:53:37.647Z,94485.74
2018-12-16T00:56:06.302Z,94490.91
2018-12-16T00:58:35.092Z,94497.78
2018-12-16T01:01:03.868Z,94500.03
2018-12-16T01:03:32.800Z,94496.75
2018-12-16T01:06:01.992Z,94491.34
2018-12-16T01:08:31.543Z,94493.84
2018-12-16T01:11:00.297Z,94495.71
2018-12-16T01:13:29.148Z,94490.61
2018-12-16T01:15:57.864Z,94496.27
2018-12-16T01:18:26.628Z,94482.94
2018-12-16T01:20:55.794Z,94485.00
2018-12-16T01:23:24.477Z,94477.92
2018-12-16T01:25:53.183Z,94464.34
2018-12-16T01:28:21.926Z,94452.19
2018-12-16T01:30:50.965Z,94453.95
2018-12-16T01:33:19.628Z,94458.34
2018-12-16T01:35:48.294Z,94451.71
2018-12-16T01:38:17.022Z,94454.31
2018-12-16T01:40:45.760Z,94455.93
2018-12-16T01:43:14.520Z,94454.45
2018-12-16T01:45:43.308Z,94451.14
2018-12-16T01:48:12.046Z,94447.36
2018-12-16T01:50:40.718Z,94442.91
2018-12-16T01:53:09.410Z,94423.47
2018-12-16T01:55:38.207Z,94427.27
2018-12-16T01:58:06.914Z,94422.16
2018-12-16T02:00:35.887Z,94420.94
2018-12-16T02:03:05.070Z,94432.23
2018-12-16T02:05:34.289Z,94421.17
2018-12-16T02:08:03.070Z,94422.73
2018-12-16T02:10:31.761Z,94430.37
2018-12-16T02:13:00.522Z,94431.41
2018-12-16T02:15:29.200Z,94430.06
2018-12-16T02:17:57.996Z,94426.88
2018-12-16T02:20:26.713Z,94422.65
2018-12-16T02:22:57.059Z,94420.23
2018-12-16T02:25:26.244Z,94412.98
2018-12-16T02:27:55.041Z,94412.04
2018-12-16T02:30:28.884Z,94411.55
2018-12-16T02:32:58.328Z,94404.53
2018-12-16T02:35:27.040Z,94405.20
2018-12-16T02:37:55.673Z,94403.41
2018-12-16T02:40:24.438Z,94400.98
2018-12-16T02:42:53.129Z,94398.47
2018-12-16T02:45:21.852Z,94389.03
2018-12-16T02:47:50.570Z,94385.80
2018-12-16T02:50:19.812Z,94387.66
2018-12-16T02:52:48.543Z,94389.53
2018-12-16T02:55:17.289Z,94387.61
2018-12-16T02:57:45.976Z,94383.33
2018-12-16T03:00:15.242Z,94394.07
2018-12-16T03:02:43.897Z,94391.20
2018-12-16T03:05:12.601Z,94393.66
2018-12-16T03:07:42.170Z,94376.16
2018-12-16T03:10:11.334Z,94380.90
2018-12-16T03:12:40.175Z,94388.14
2018-12-16T03:15:09.526Z,94388.41
2018-12-16T03:17:38.403Z,94391.83
2018-12-16T03:20:08.123Z,94383.16
2018-12-16T03:22:36.964Z,94389.05
2018-12-16T03:25:07.398Z,94391.88
2018-12-16T03:27:39.289Z,94397.72
2018-12-16T03:30:11.258Z,94396.41
2018-12-16T03:32:40.054Z,94399.34
2018-12-16T03:35:09.435Z,94399.84
2018-12-16T03:37:38.285Z,94398.05
2018-12-16T03:40:08.061Z,94408.77
2018-12-16T03:42:36.841Z,94403.26
2018-12-16T03:45:06.612Z,94404.84
2018-12-16T03:47:35.326Z,94413.68
2018-12-16T03:50:04.686Z,94408.77
2018-12-16T03:52:33.472Z,94410.48
2018-12-16T03:55:02.205Z,94416.50
2018-12-16T03:57:31.479Z,94425.44
2018-12-16T04:00:00.724Z,94418.25
2018-12-16T04:02:29.449Z,94414.41
2018-12-16T04:04:58.250Z,94416.58
2018-12-16T04:07:27.074Z,94415.05
2018-12-16T04:09:55.806Z,94426.14
2018-12-16T04:12:24.479Z,94426.41
2018-12-16T04:14:53.179Z,94431.98
2018-12-16T04:17:21.882Z,94435.45
2018-12-16T04:19:50.621Z,94428.18
2018-12-16T04:22:19.381Z,94438.19
2018-12-16T04:24:48.197Z,94436.39
2018-12-16T04:27:17.053Z,94436.39
2018-12-16T04:29:45.810Z,94444.09
2018-12-16T04:32:14.589Z,94441.89
2018-12-16T04:34:43.356Z,94439.28
2018-12-16T04:37:12.072Z,94448.23
2018-12-16T04:39:40.778Z,94445.07
2018-12-16T04:42:09.645Z,94444.75
2018-12-16T04:44:38.380Z,94445.81
2018-12-16T04:47:07.173Z,94437.00
2018-12-16T04:49:35.854Z,94449.57
2018-12-16T04:52:04.618Z,94457.84
2018-12-16T04:54:33.344Z,94467.44
2018-12-16T04:57:02.091Z,94474.28
2018-12-16T04:59:30.837Z,94479.55
2018-12-16T05:01:59.609Z,94482.34
2018-12-16T05:04:28.304Z,94487.00
2018-12-16T05:06:57.054Z,94473.88
2018-12-16T05:09:25.874Z,94470.31
2018-12-16T05:11:54.664Z,94468.76
2018-12-16T05:14:23.706Z,94471.30
2018-12-16T05:16:52.468Z,94467.18
2018-12-16T05:19:21.170Z,94471.30
2018-12-16T05:21:49.899Z,94485.55
2018-12-16T05:24:18.624Z,94496.80
2018-12-16T05:26:47.363Z,94485.63
2018-12-16T05:29:16.116Z,94493.15
2018-12-16T05:31:44.903Z,94501.20
2018-12-16T05:34:13.573Z,94502.07
2018-12-16T05:36:42.450Z,94497.09
2018-12-16T05:39:11.187Z,94496.34
2018-12-16T05:41:39.896Z,94492.46
2018-12-16T05:44:08.576Z,94489.54
2018-12-16T05:46:37.267Z,94491.37
2018-12-16T05:49:06.082Z,94492.53
2018-12-16T05:51:34.800Z,94489.01
2018-12-16T05:54:03.590Z,94497.66
2018-12-16T05:56:32.326Z,94503.27
2018-12-16T05:59:01.102Z,94507.16
2018-12-16T06:01:29.778Z,94510.58
2018-12-16T06:03:58.438Z,94500.75
2018-12-16T06:06:27.202Z,94498.00
2018-12-16T06:08:55.895Z,94501.85
2018-12-16T06:11:24.641Z,94497.67
2018-12-16T06:13:53.331Z,94502.90
2018-12-16T06:16:21.977Z,94504.36
2018-12-16T06:18:50.715Z,94511.30
2018-12-16T06:21:19.435Z,94521.05
2018-12-16T06:23:48.243Z,94519.11
2018-12-16T06:26:16.980Z,94532.62
2018-12-16T06:28:45.816Z,94533.27
2018-12-16T06:31:14.640Z,94543.34
2018-12-16T06:33:43.385Z,94545.31
2018-12-16T06:36:12.503Z,94544.67
2018-12-16T06:38:41.208Z,94537.67
2018-12-16T06:41:09.910Z,94540.95
2018-12-16T06:43:38.623Z,94547.77
2018-12-16T06:46:07.365Z,94560.06
2018-12-16T06:48:36.092Z,94569.45
2018-12-16T06:51:04.843Z,94567.03
2018-12-16T06:53:34.117Z,94573.83
2018-12-16T06:56:06.598Z,94587.43
2018-12-16T06:58:33.550Z,94580.47
2018-12-16T07:01:02.419Z,94575.13
2018-12-16T07:03:31.174Z,94581.13
2018-12-16T07:06:00.018Z,94590.02
2018-12-16T07:08:28.648Z,94571.22
2018-12-16T07:10:57.617Z,94572.50
2018-12-16T07:13:26.497Z,94584.78
2018-12-16T07:15:55.234Z,94595.88
2018-12-16T07:18:23.973Z,94605.12
2018-12-16T07:20:52.726Z,94595.55
2018-12-16T07:23:21.445Z,94588.45
2018-12-16T07:25:50.453Z,94589.89
2018-12-16T07:28:19.159Z,94604.55
2018-12-16T07:30:48.237Z,94592.20
2018-12-16T07:33:17.122Z,94590.47
2018-12-16T07:35:46.189Z,94596.92
2018-12-16T07:38:15.055Z,94602.20
2018-12-16T07:40:43.806Z,94606.16
2018-12-16T07:43:12.530Z,94621.15
2018-12-16T07:45:41.203Z,94631.39
2018-12-16T07:48:09.934Z,94634.64
2018-12-16T07:50:38.733Z,94641.09
2018-12-16T07:53:07.462Z,94647.48
2018-12-16T07:55:36.182Z,94648.14
2018-12-16T07:58:05.359Z,94642.61
2018-12-16T08:00:34.341Z,94658.14
2018-12-16T08:03:04.502Z,94705.19
2018-12-16T08:05:33.277Z,94683.25
2018-12-16T08:08:02.036Z,94689.83
2018-12-16T08:10:30.812Z,94673.45
2018-12-16T08:12:59.533Z,94667.48
2018-12-16T08:15:28.277Z,94685.52
2018-12-16T08:17:56.953Z,94693.34
2018-12-16T08:20:25.642Z,94705.41
2018-12-16T08:22:54.377Z,94742.06
2018-12-16T08:25:23.165Z,94736.92
2018-12-16T08:27:51.945Z,94736.36
2018-12-16T08:30:20.945Z,94741.20
2018-12-16T08:32:49.660Z,94740.26
2018-12-16T08:35:18.417Z,94744.25
2018-12-16T08:37:47.177Z,94749.06
2018-12-16T08:40:16.456Z,94755.76
2018-12-16T08:42:45.164Z,94790.24
2018-12-16T08:45:13.963Z,94814.50
2018-12-16T08:47:42.738Z,94796.78
2018-12-16T08:50:11.533Z,94805.41
2018-12-16T08:52:40.536Z,94814.95
2018-12-16T08:55:09.248Z,94806.63
2018-12-16T08:57:37.985Z,94802.30
2018-12-16T09:00:14.732Z,94806.73
2018-12-16T09:02:43.467Z,94790.35
2018-12-16T09:05:13.391Z,94790.61
2018-12-16T09:07:42.081Z,94800.81
2018-12-16T09:10:11.476Z,94809.03
2018-12-16T09:12:40.234Z,94796.33
2018-12-16T09:15:09.463Z,94802.34
2018-12-16T09:17:38.208Z,94810.71
2018-12-16T09:20:07.995Z,94809.55
2018-12-16T09:22:36.778Z,94821.13
2018-12-16T09:25:07.273Z,94822.59
2018-12-16T09:27:36.024Z,94813.42
2018-12-16T09:30:14.018Z,94823.95
2018-12-16T09:32:42.767Z,94812.27
2018-12-16T09:35:11.463Z,94814.07
2018-12-16T09:37:40.190Z,94834.77
2018-12-16T09:40:09.643Z,94830.44
2018-12-16T09:42:38.383Z,94826.17
2018-12-16T09:45:08.114Z,94818.14
2018-12-16T09:47:37.313Z,94839.64
2018-12-16T09:50:06.955Z,94842.44
2018-12-16T09:52:35.660Z,94839.41
2018-12-16T09:55:05.318Z,94852.41
2018-12-16T09:57:34.072Z,94844.33
2018-12-16T10:00:12.021Z,94859.47
2018-12-16T10:02:40.847Z,94855.04
2018-12-16T10:05:12.594Z,94862.67
2018-12-16T10:07:41.356Z,94868.11
2018-12-16T10:10:11.452Z,94867.94
2018-12-16T10:12:40.227Z,94859.77
2018-12-16T10:15:10.050Z,94863.75
2018-12-16T10:17:38.789Z,94855.15
2018-12-16T10:20:10.020Z,94855.15
2018-12-16T10:22:38.968Z,94845.90
2018-12-16T10:25:08.207Z,94852.27
2018-12-16T10:27:36.965Z,94858.89
2018-12-16T10:30:13.872Z,94853.21
2018-12-16T10:32:42.604Z,94855.51
2018-12-16T10:35:11.344Z,94857.23
2018-12-16T10:37:40.093Z,94851.23
2018-12-16T10:40:08.933Z,94851.70
2018-12-16T10:42:37.655Z,94856.91
2018-12-16T10:45:08.540Z,94856.53
2018-12-16T10:47:37.268Z,94857.00
2018-12-16T10:50:07.644Z,94856.37
2018-12-16T10:52:36.382Z,94854.70
2018-12-16T10:55:06.104Z,94850.03
2018-12-16T10:57:34.820Z,94848.16
2018-12-16T11:00:16.699Z,94845.59
2018-12-16T11:02:45.443Z,94842.75
2018-12-16T11:05:15.326Z,94847.27
2018-12-16T11:07:44.039Z,94844.78
2018-12-16T11:10:12.761Z,94847.96
2018-12-16T11:12:42.337Z,94855.78
2018-12-16T11:15:11.170Z,94847.73
2018-12-16T11:17:39.880Z,94856.48
2018-12-16T11:20:09.234Z,94850.91
2018-12-16T11:22:37.985Z,94845.89
2018-12-16T11:25:09.026Z,94846.47
2018-12-16T11:27:37.803Z,94846.83
2018-12-16T11:30:15.276Z,94843.03
2018-12-16T11:32:44.491Z,94827.85
2018-12-16T11:35:13.243Z,94839.73
2018-12-16T11:37:42.423Z,94847.29
2018-12-16T11:40:11.258Z,94841.89
2018-12-16T11:42:39.976Z,94834.66
2018-12-16T11:45:09.213Z,94840.34
2018-12-16T11:47:38.019Z,94841.86
2018-12-16T11:50:07.342Z,94842.20
2018-12-16T11:52:36.136Z,94842.68
2018-12-16T11:55:12.540Z,94849.83
2018-12-16T11:57:36.248Z,94849.30
2018-12-16T12:00:13.657Z,94851.34
2018-12-16T12:02:42.341Z,94845.64
2018-12-16T12:05:11.102Z,94843.34
2018-12-16T12:07:39.813Z,94852.72
2018-12-16T12:10:09.348Z,94842.80
2018-12-16T12:12:38.071Z,94850.38
2018-12-16T12:15:07.251Z,94856.42
2018-12-16T12:17:35.984Z,94849.06
2018-12-16T12:20:05.501Z,94850.00
2018-12-16T12:22:34.238Z,94854.00
2018-12-16T12:25:03.006Z,94854.90
2018-12-16T12:27:31.807Z,94857.00
2018-12-16T12:30:00.566Z,94850.00
2018-12-16T12:32:29.328Z,94860.27
2018-12-16T12:34:58.020Z,94868.23
2018-12-16T12:37:26.866Z,94867.47
2018-12-16T12:39:55.660Z,94871.59
2018-12-16T12:42:24.420Z,94867.70
2018-12-16T12:44:53.186Z,94879.92
2018-12-16T12:47:22.191Z,94874.66
2018-12-16T12:49:50.886Z,94868.94
2018-12-16T12:52:19.952Z,94888.88
2018-12-16T12:54:50.633Z,94894.70
2018-12-16T12:57:19.398Z,94892.98
2018-12-16T12:59:48.268Z,94894.24
2018-12-16T13:02:17.079Z,94887.13
2018-12-16T13:04:45.927Z,94899.81
2018-12-16T13:07:14.633Z,94896.60
2018-12-16T13:09:43.409Z,94887.59
2018-12-16T13:12:12.236Z,94906.06
2018-12-16T13:14:41.371Z,94898.56
2018-12-16T13:17:10.140Z,94903.70
2018-12-16T13:19:38.862Z,94894.36
2018-12-16T13:22:07.617Z,94890.74
2018-12-16T13:24:40.753Z,94906.23
2018-12-16T13:27:09.505Z,94906.62
2018-12-16T13:29:38.230Z,94901.86
2018-12-16T13:32:07.076Z,94898.70
2018-12-16T13:34:35.842Z,94901.95
2018-12-16T13:37:11.152Z,94905.59
2018-12-16T13:39:39.873Z,94905.89
2018-12-16T13:42:08.561Z,94911.77
2018-12-16T13:44:37.272Z,94908.27
2018-12-16T13:47:06.161Z,94916.26
2018-12-16T13:49:34.945Z,94926.06
2018-12-16T13:52:03.747Z,94924.97
2018-12-16T13:54:32.596Z,94923.97
2018-12-16T13:57:01.471Z,94923.30
2018-12-16T13:59:30.261Z,94925.98
2018-12-16T14:01:58.982Z,94933.03
2018-12-16T14:04:27.744Z,94924.04
2018-12-16T14:06:56.529Z,94936.73
2018-12-16T14:09:25.298Z,94925.25
2018-12-16T14:11:54.406Z,94928.48
2018-12-16T14:14:23.147Z,94933.16
2018-12-16T14:16:51.921Z,94939.25
2018-12-16T14:19:20.707Z,94936.69
2018-12-16T14:21:49.496Z,94944.30
2018-12-16T14:24:18.243Z,94941.62
2018-12-16T14:26:47.196Z,94946.03
2018-12-16T14:29:16.005Z,94946.35
2018-12-16T14:31:44.680Z,94945.03
2018-12-16T14:34:13.427Z,94947.68
2018-12-16T14:36:42.155Z,94949.03
2018-12-16T14:39:10.848Z,94945.53
2018-12-16T14:41:40.396Z,94950.41
2018-12-16T14:44:09.206Z,94963.11
2018-12-16T14:46:37.891Z,94959.83
2018-12-16T14:49:06.605Z,94962.17
2018-12-16T14:51:35.877Z,94964.63
2018-12-16T14:54:05.039Z,94951.85
2018-12-16T14:56:33.808Z,94954.69
2018-12-16T14:59:03.178Z,94949.91
2018-12-16T15:01:31.990Z,94967.58
2018-12-16T15:04:01.051Z,94975.52
2018-12-16T15:06:29.942Z,94969.14
2018-12-16T15:08:58.618Z,94969.61
2018-12-16T15:11:27.470Z,94978.50
2018-12-16T15:13:56.224Z,94980.52
2018-12-16T15:16:25.266Z,94980.83
2018-12-16T15:18:54.005Z,94978.26
2018-12-16T15:21:22.744Z,94978.41
2018-12-16T15:23:51.573Z,94985.27
2018-12-16T15:26:20.393Z,94979.27
2018-12-16T15:28:49.203Z,94995.02
2018-12-16T15:31:19.311Z,94987.66
2018-12-16T15:33:48.493Z,94995.48
2018-12-16T15:36:17.411Z,94999.84
2018-12-16T15:38:46.161Z,94999.61
2018-12-16T15:41:15.011Z,95002.73
2018-12-16T15:43:43.905Z,95001.32
2018-12-16T15:46:12.737Z,94998.75
2018-12-16T15:48:42.307Z,95019.05
2018-12-16T15:51:11.038Z,95012.75
2018-12-16T15:53:40.217Z,95011.69
2018-12-16T15:56:09.517Z,95022.91
2018-12-16T15:58:40.731Z,95020.11
2018-12-16T16:01:09.652Z,95016.02
2018-12-16T16:03:38.761Z,95019.98
2018-12-16T16:06:07.513Z,95023.61
2018-12-16T16:08:37.483Z,95026.42
2018-12-16T16:11:06.720Z,95037.05
2018-12-16T16:13:35.592Z,95018.39
2018-12-16T16:16:06.078Z,95043.20
2018-12-16T16:18:35.135Z,95040.52
2018-12-16T16:21:04.783Z,95038.87
2018-12-16T16:23:33.597Z,95023.65
2018-12-16T16:26:02.458Z,95040.13
2018-12-16T16:28:31.338Z,95043.99
2018-12-16T16:31:00.253Z,95049.16
2018-12-16T16:33:29.754Z,95053.38
2018-12-16T16:35:59.637Z,95042.97
2018-12-16T16:38:28.613Z,95051.85
2018-12-16T16:40:58.030Z,95040.19
2018-12-16T16:43:26.941Z,95043.78
2018-12-16T16:45:55.882Z,95044.48
2018-12-16T16:48:24.847Z,95044.17
2018-12-16T16:50:53.853Z,95045.80
2018-12-16T16:53:24.256Z,95041.39
2018-12-16T16:55:53.457Z,95054.13
2018-12-16T16:58:22.396Z,95064.50
2018-12-16T17:00:53.888Z,95064.52
2018-12-16T17:03:23.735Z,95065.22
2018-12-16T17:05:52.522Z,95064.54
2018-12-16T17:08:22.249Z,95071.34
2018-12-16T17:10:51.671Z,95075.53
2018-12-16T17:13:20.419Z,95061.52
2018-12-16T17:15:49.545Z,95058.36
2018-12-16T17:18:19.537Z,95054.05
2018-12-16T17:20:48.326Z,95087.33
2018-12-16T17:23:17.205Z,95075.30
2018-12-16T17:25:48.436Z,95095.52
2018-12-16T17:28:18.552Z,95105.66
2018-12-16T17:30:47.319Z,95109.63
2018-12-16T17:33:16.108Z,95100.63
2018-12-16T17:35:44.943Z,95097.72
2018-12-16T17:38:13.712Z,95108.36
2018-12-16T17:40:42.507Z,95093.52
2018-12-16T17:43:11.234Z,95084.66
2018-12-16T17:45:40.037Z,95086.04
2018-12-16T17:48:08.840Z,95085.36
2018-12-16T17:50:37.537Z,95074.37
2018-12-16T17:53:06.937Z,95090.95
2018-12-16T17:55:37.456Z,95091.08
2018-12-16T17:58:06.791Z,95091.21
2018-12-16T18:00:35.590Z,95081.52
2018-12-16T18:03:04.411Z,95081.96
2018-12-16T18:05:34.037Z,95088.51
2018-12-16T18:08:04.305Z,95097.39
2018-12-16T18:10:33.043Z,95097.38
2018-12-16T18:13:02.200Z,95097.73
2018-12-16T18:15:31.081Z,95097.16
2018-12-16T18:17:59.795Z,95100.89
2018-12-16T18:20:28.595Z,95095.27
2018-12-16T18:22:57.454Z,95099.02
2018-12-16T18:25:26.202Z,95101.94
2018-12-16T18:27:55.086Z,95088.87
2018-12-16T18:30:23.982Z,95096.33
2018-12-16T18:32:53.253Z,95106.02
2018-12-16T18:35:22.163Z,95095.87
2018-12-16T18:37:51.360Z,95097.36
2018-12-16T18:40:20.127Z,95102.97
2018-12-16T18:42:48.912Z,95093.39
2018-12-16T18:45:18.119Z,95093.17
2018-12-16T18:47:47.376Z,95098.67
2018-12-16T18:50:16.120Z,95111.05
2018-12-16T18:52:44.930Z,95102.98
2018-12-16T18:55:14.100Z,95105.56
2018-12-16T18:57:42.852Z,95109.52
2018-12-16T19:00:15.636Z,95106.26
2018-12-16T19:02:44.521Z,95103.69
2018-12-16T19:05:13.323Z,95107.66
2018-12-16T19:07:43.165Z,95103.81
2018-12-16T19:10:13.074Z,95108.01
2018-12-16T19:12:41.811Z,95101.23
2018-12-16T19:15:12.116Z,95094.82
2018-12-16T19:17:40.897Z,95091.89
2018-12-16T19:20:10.220Z,95097.50
2018-12-16T19:22:38.987Z,95100.52
2018-12-16T19:25:08.625Z,95095.06
2018-12-16T19:27:37.399Z,95090.39
2018-12-16T19:30:13.794Z,95076.94
2018-12-16T19:32:42.573Z,95069.37
2018-12-16T19:35:11.580Z,95082.55
2018-12-16T19:37:40.522Z,95079.39
2018-12-16T19:40:09.635Z,95081.25
2018-12-16T19:42:38.798Z,95081.27
2018-12-16T19:45:08.434Z,95074.38
2018-12-16T19:47:37.203Z,95071.80
2018-12-16T19:50:07.402Z,95075.18
2018-12-16T19:52:36.152Z,95082.54
2018-12-16T19:55:05.951Z,95086.39
2018-12-16T19:57:34.763Z,95085.11
2018-12-16T20:00:12.854Z,95081.03
2018-12-16T20:02:41.604Z,95076.01
2018-12-16T20:05:20.095Z,95087.44
2018-12-16T20:07:49.678Z,95085.58
2018-12-16T20:10:18.598Z,95080.45
2018-12-16T20:12:47.335Z,95086.98
2018-12-16T20:15:16.124Z,95083.38
2018-12-16T20:17:44.857Z,95071.55
2018-12-16T20:20:13.653Z,95075.06
2018-12-16T20:22:42.436Z,95070.39
2018-12-16T20:25:11.672Z,95074.02
2018-12-16T20:27:40.442Z,95065.95
2018-12-16T20:30:12.693Z,95068.88
2018-12-16T20:32:41.519Z,95059.31
2018-12-16T20:35:10.478Z,95074.38
2018-12-16T20:37:39.655Z,95062.95
2018-12-16T20:40:09.356Z,95068.77
2018-12-16T20:42:38.083Z,95080.55
2018-12-16T20:45:07.940Z,95081.83
2018-12-16T20:47:36.669Z,95092.11
2018-12-16T20:50:07.216Z,95085.72
2018-12-16T20:52:35.911Z,95082.89
2018-12-16T20:55:05.843Z,95083.37
2018-12-16T20:57:34.621Z,95078.45
2018-12-16T21:00:11.984Z,95084.87
2018-12-16T21:02:40.912Z,95074.63
2018-12-16T21:05:10.996Z,95079.53
2018-12-16T21:07:39.780Z,95074.95
2018-12-16T21:10:09.051Z,95082.20
2018-12-16T21:12:43.062Z,95091.21
2018-12-16T21:16:15.720Z,95093.42
2018-12-16T21:18:44.994Z,95082.22
2018-12-16T21:21:13.812Z,95085.36
2018-12-16T21:23:42.567Z,95091.20
2018-12-16T21:26:11.608Z,95103.45
2018-12-16T21:28:40.355Z,95083.50
2018-12-16T21:31:09.124Z,95078.23
2018-12-16T21:33:37.924Z,95074.27
2018-12-16T21:36:06.685Z,95067.70
2018-12-16T21:38:35.432Z,95061.42
2018-12-16T21:41:04.227Z,95049.13
2018-12-16T21:43:34.821Z,95046.33
2018-12-16T21:46:03.913Z,95046.94
2018-12-16T21:48:32.686Z,95057.69
2018-12-16T21:51:01.405Z,95064.34
2018-12-16T21:53:30.162Z,95050.69
2018-12-16T21:55:58.871Z,95069.25
2018-12-16T21:58:27.628Z,95066.55
2018-12-16T22:00:56.437Z,95058.04
2018-12-16T22:03:25.227Z,95063.98
2018-12-16T22:05:54.035Z,95055.25
2018-12-16T22:08:22.752Z,95056.66
2018-12-16T22:10:51.541Z,95055.95
2018-12-16T22:13:20.331Z,95047.89
2018-12-16T22:15:49.062Z,95056.64
2018-12-16T22:18:17.824Z,95055.47
2018-12-16T22:20:46.596Z,95051.86
2018-12-16T22:23:15.353Z,95054.55
2018-12-16T22:25:44.147Z,95055.94
2018-12-16T22:28:12.938Z,95056.53
2018-12-16T22:30:41.747Z,95048.56
2018-12-16T22:33:10.480Z,95046.70
2018-12-16T22:35:39.228Z,95047.74
2018-12-16T22:38:07.927Z,95048.82
2018-12-16T22:40:36.654Z,95055.24
2018-12-16T22:43:05.503Z,95057.11
2018-12-16T22:45:34.215Z,95045.99
2018-12-16T22:48:02.922Z,95051.05
2018-12-16T22:50:31.700Z,95052.20
2018-12-16T22:53:00.406Z,95042.14
2018-12-16T22:55:29.126Z,95047.05
2018-12-16T22:57:57.990Z,95046.59
2018-12-16T23:00:27.433Z,95060.38
2018-12-16T23:02:56.214Z,95049.16
2018-12-16T23:05:24.972Z,95051.38
2018-12-16T23:07:53.650Z,95046.84
2018-12-16T23:10:22.408Z,95039.02
2018-12-16T23:12:51.232Z,95042.76
2018-12-16T23:15:19.933Z,95040.64
2018-12-16T23:17:48.707Z,95028.84
2018-12-16T23:20:19.869Z,95021.34
2018-12-16T23:22:48.942Z,95020.56
2018-12-16T23:25:17.689Z,95021.59
2018-12-16T23:27:46.372Z,95026.00
2018-12-16T23:30:15.271Z,95028.12
2018-12-16T23:32:44.002Z,95031.63
2018-12-16T23:35:12.763Z,95034.06
2018-12-16T23:37:41.474Z,95039.44
2018-12-16T23:40:10.207Z,95035.83
2018-12-16T23:42:39.022Z,95036.98
2018-12-16T23:45:09.938Z,95033.02
2018-12-16T23:47:38.634Z,95032.45
2018-12-16T23:50:08.516Z,95036.43
2018-12-16T23:52:37.306Z,95030.84
2018-12-16T23:55:06.525Z,95028.98
2018-12-16T23:57:35.313Z,95024.75
